Crosskeys, Virginia
Current Conditions -  °F | °C
As of 7:35 AM on Tuesday 27 Jan 2015 (Local Time) from KVBW Reporting Station
Overcast Overcast  
Wind Chill: 19°   Ceiling: 7500
Heat Index: 26°   Visibility: 10mi
Dew Point: 15°   Wind: 6mph
Humidity: 64%   Direction: 10°N
Pressure: 29.77"   Gusts: NA
Location:  38.339°N, 78.8869°W
Report Text: KVBW 271235Z AUTO 01005KT 10SM OVC075 M03/M09 A2977 RMK AO2 T10341094
Loading
Personal Weather Stations






























Interactive Weather Map New forecast layout! Learn more

10-Day Weather Forecast

Advertisements
Track Severe Weather on mobile